createdAt,value
2022-08-24T00:01:11.965Z,64.24
2022-08-24T00:05:15.104Z,63.29
2022-08-24T00:09:17.759Z,63.32
2022-08-24T00:13:21.852Z,63.02
2022-08-24T00:17:25.268Z,63.55
2022-08-24T00:21:27.863Z,65.40
2022-08-24T00:25:31.357Z,66.56
2022-08-24T00:29:35.839Z,67.08
2022-08-24T00:33:39.377Z,67.56
2022-08-24T00:37:42.478Z,68.19
2022-08-24T00:41:49.394Z,67.67
2022-08-24T00:46:04.895Z,67.46
2022-08-24T00:50:12.061Z,67.42
2022-08-24T00:54:17.283Z,67.28
2022-08-24T00:58:25.426Z,67.33
2022-08-24T01:02:35.020Z,67.60
2022-08-24T01:06:37.775Z,68.10
2022-08-24T01:10:44.282Z,68.43
2022-08-24T01:14:47.151Z,67.58
2022-08-24T01:18:51.220Z,68.91
2022-08-24T01:23:03.544Z,69.15
2022-08-24T01:27:10.994Z,69.17
2022-08-24T01:31:16.269Z,69.02
2022-08-24T01:35:18.971Z,69.99
2022-08-24T01:39:26.075Z,70.66
2022-08-24T01:43:30.087Z,71.90
2022-08-24T01:47:34.048Z,72.15
2022-08-24T01:51:36.648Z,71.81
2022-08-24T01:55:39.416Z,73.17
2022-08-24T01:59:43.476Z,73.16
2022-08-24T02:03:46.807Z,72.52
2022-08-24T02:07:54.688Z,71.86
2022-08-24T02:11:57.364Z,70.70
2022-08-24T02:16:01.391Z,70.05
2022-08-24T02:20:09.245Z,70.20
2022-08-24T02:24:12.315Z,71.70
2022-08-24T02:28:14.991Z,72.31
2022-08-24T02:32:18.903Z,70.91
2022-08-24T02:36:25.937Z,71.88
2022-08-24T02:40:33.031Z,73.53
2022-08-24T02:44:36.404Z,73.73
2022-08-24T02:48:40.307Z,73.08
2022-08-24T02:52:43.983Z,72.54
2022-08-24T02:56:47.316Z,74.02
2022-08-24T03:00:50.261Z,73.35
2022-08-24T03:04:57.023Z,74.96
2022-08-24T03:09:00.398Z,75.59
2022-08-24T03:13:03.495Z,75.02
2022-08-24T03:17:06.176Z,76.25
2022-08-24T03:21:11.018Z,76.32
2022-08-24T03:25:20.212Z,76.36
2022-08-24T03:29:23.952Z,76.69
2022-08-24T03:33:27.107Z,77.18
2022-08-24T03:37:32.745Z,77.96
2022-08-24T03:41:36.733Z,77.99
2022-08-24T03:45:39.654Z,77.97
2022-08-24T03:49:42.715Z,77.24
2022-08-24T03:53:47.124Z,77.14
2022-08-24T03:57:50.578Z,76.69
2022-08-24T04:01:55.990Z,76.64
2022-08-24T04:05:58.887Z,74.95
2022-08-24T04:10:06.300Z,74.73
2022-08-24T04:14:12.116Z,77.50
2022-08-24T04:18:34.359Z,78.42
2022-08-24T04:22:37.310Z,77.03
2022-08-24T04:26:45.033Z,75.93
2022-08-24T04:30:51.241Z,76.10
2022-08-24T04:35:05.806Z,76.91
2022-08-24T04:39:09.518Z,77.48
2022-08-24T04:43:34.797Z,78.13
2022-08-24T04:47:37.539Z,77.19
2022-08-24T04:51:40.279Z,76.19
2022-08-24T04:55:47.388Z,75.76
2022-08-24T04:59:51.423Z,76.54
2022-08-24T05:03:56.429Z,76.58
2022-08-24T05:07:59.175Z,76.88
2022-08-24T05:12:01.907Z,76.97
2022-08-24T05:16:13.727Z,77.24
2022-08-24T05:20:17.345Z,77.12
2022-08-24T05:24:20.538Z,75.36
2022-08-24T05:28:23.360Z,74.66
2022-08-24T05:32:30.435Z,74.85
2022-08-24T05:36:37.999Z,74.70
2022-08-24T05:40:42.251Z,72.10
2022-08-24T05:44:45.224Z,70.67
2022-08-24T05:48:52.728Z,67.89
2022-08-24T05:53:06.337Z,68.81
2022-08-24T05:57:09.022Z,68.52
2022-08-24T06:01:20.923Z,68.83
2022-08-24T06:05:24.948Z,67.57
2022-08-24T06:09:27.608Z,67.53
2022-08-24T06:13:31.120Z,68.08
2022-08-24T06:17:34.453Z,68.04
2022-08-24T06:21:38.990Z,67.77
2022-08-24T06:25:59.278Z,67.34
2022-08-24T06:30:05.392Z,66.79
2022-08-24T06:34:27.945Z,67.25
2022-08-24T06:38:32.034Z,66.22
2022-08-24T06:42:36.241Z,64.99
2022-08-24T06:46:52.564Z,64.54
2022-08-24T06:50:56.248Z,63.47
2022-08-24T06:55:00.697Z,61.64
2022-08-24T06:59:04.309Z,61.93
2022-08-24T07:03:07.388Z,61.68
2022-08-24T07:07:11.542Z,61.44
2022-08-24T07:11:17.916Z,60.83
2022-08-24T07:15:20.903Z,59.74
2022-08-24T07:19:34.899Z,58.57
2022-08-24T07:23:42.139Z,57.83
2022-08-24T07:27:48.275Z,58.46
2022-08-24T07:31:51.731Z,57.74
2022-08-24T07:36:07.914Z,58.63
2022-08-24T07:40:12.519Z,58.66
2022-08-24T07:44:16.616Z,58.29
2022-08-24T07:48:19.546Z,57.48
2022-08-24T07:52:22.968Z,57.32
2022-08-24T07:56:28.485Z,56.88
2022-08-24T08:00:33.540Z,56.19
2022-08-24T08:04:39.914Z,55.55
2022-08-24T08:08:42.940Z,54.67
2022-08-24T08:12:46.385Z,54.12
2022-08-24T08:16:50.800Z,53.37
2022-08-24T08:20:53.820Z,52.12
2022-08-24T08:24:55.323Z,51.58
2022-08-24T08:28:58.137Z,50.26
2022-08-24T08:33:03.253Z,48.24
2022-08-24T08:37:06.746Z,47.57
2022-08-24T08:41:43.727Z,47.24
2022-08-24T08:46:13.207Z,46.22
2022-08-24T08:51:03.099Z,46.47
2022-08-24T08:55:19.010Z,45.16
2022-08-24T08:59:39.415Z,45.46
2022-08-24T09:04:21.215Z,45.03
2022-08-24T09:09:03.661Z,44.72
2022-08-24T09:13:24.568Z,44.17
2022-08-24T09:17:48.575Z,43.34
2022-08-24T09:22:04.039Z,43.58
2022-08-24T09:26:18.990Z,43.54
2022-08-24T09:30:25.784Z,43.50
2022-08-24T09:34:38.230Z,43.19
2022-08-24T09:39:00.397Z,43.06
2022-08-24T09:43:47.065Z,42.70
2022-08-24T09:48:22.640Z,42.29
2022-08-24T09:52:59.111Z,42.08
2022-08-24T09:57:50.220Z,42.08
2022-08-24T10:02:17.286Z,42.12
2022-08-24T10:06:29.809Z,41.21
2022-08-24T10:10:39.962Z,40.91
2022-08-24T10:14:53.690Z,40.77
2022-08-24T10:19:09.031Z,40.87
2022-08-24T10:23:34.499Z,40.56
2022-08-24T10:27:47.802Z,40.94
2022-08-24T10:32:08.545Z,40.53
2022-08-24T10:36:51.842Z,40.25
2022-08-24T10:41:11.280Z,39.82
2022-08-24T10:45:41.574Z,39.53
2022-08-24T10:50:22.235Z,39.49
2022-08-24T10:54:26.746Z,39.38
2022-08-24T10:58:45.132Z,38.63
2022-08-24T11:02:49.936Z,39.34
2022-08-24T11:07:11.282Z,38.90
2022-08-24T11:11:25.852Z,38.57
2022-08-24T11:15:29.820Z,37.98
2022-08-24T11:19:35.243Z,38.05
2022-08-24T11:23:38.095Z,37.87
2022-08-24T11:27:45.929Z,37.54
2022-08-24T11:31:52.598Z,37.48
2022-08-24T11:35:55.361Z,37.23
2022-08-24T11:39:58.011Z,37.57
2022-08-24T11:44:06.291Z,37.62
2022-08-24T11:48:28.520Z,37.20
2022-08-24T11:52:50.363Z,37.23
2022-08-24T11:57:09.047Z,37.44
2022-08-24T12:01:18.728Z,37.32
2022-08-24T12:05:27.022Z,36.89
2022-08-24T12:09:44.165Z,36.56
2022-08-24T12:13:53.865Z,36.78
2022-08-24T12:18:05.065Z,36.29
2022-08-24T12:22:09.812Z,35.70
2022-08-24T12:26:18.198Z,35.94
2022-08-24T12:30:20.837Z,35.79
2022-08-24T12:34:33.386Z,35.17
2022-08-24T12:38:42.815Z,34.66
2022-08-24T12:42:52.243Z,35.02
2022-08-24T12:46:55.690Z,34.63
2022-08-24T12:51:16.183Z,34.06
2022-08-24T12:55:52.645Z,33.97
2022-08-24T12:59:57.992Z,33.67
2022-08-24T13:04:09.314Z,33.60
2022-08-24T13:08:19.202Z,33.94
2022-08-24T13:12:53.324Z,31.15
2022-08-24T13:17:13.299Z,30.74
2022-08-24T13:21:17.905Z,30.96
2022-08-24T13:25:43.507Z,30.93
2022-08-24T13:29:53.051Z,31.05
2022-08-24T13:34:00.068Z,31.49
2022-08-24T13:38:51.664Z,30.76
2022-08-24T13:43:12.871Z,30.47
2022-08-24T13:47:23.196Z,28.92
2022-08-24T13:51:36.101Z,29.31
2022-08-24T13:55:46.774Z,30.28
2022-08-24T14:00:02.707Z,30.36
2022-08-24T14:04:28.353Z,30.37
2022-08-24T14:08:45.445Z,30.03
2022-08-24T14:12:59.960Z,30.02
2022-08-24T14:17:35.782Z,29.76
2022-08-24T14:21:45.038Z,30.27
2022-08-24T14:25:49.163Z,30.15
2022-08-24T14:29:52.180Z,29.41
2022-08-24T14:34:08.152Z,28.94
2022-08-24T14:38:39.094Z,27.96
2022-08-24T14:42:53.679Z,27.66
2022-08-24T14:47:05.336Z,26.22
2022-08-24T14:51:22.352Z,25.34
2022-08-24T14:55:32.173Z,25.83
2022-08-24T14:59:47.716Z,26.07
2022-08-24T15:04:11.931Z,25.54
2022-08-24T15:08:32.077Z,25.62
2022-08-24T15:12:38.863Z,24.59
2022-08-24T15:16:53.313Z,25.78
2022-08-24T15:21:10.733Z,25.99
2022-08-24T15:25:25.167Z,23.84
2022-08-24T15:29:30.918Z,24.33
2022-08-24T15:33:34.296Z,24.15
2022-08-24T15:37:40.086Z,24.25
2022-08-24T15:41:44.131Z,24.43
2022-08-24T15:45:51.733Z,25.40
2022-08-24T15:49:57.859Z,25.91
2022-08-24T15:54:19.670Z,26.20
2022-08-24T15:58:34.455Z,26.04
2022-08-24T16:02:38.778Z,26.45
2022-08-24T16:06:45.130Z,26.93
2022-08-24T16:10:50.082Z,26.98
2022-08-24T16:15:08.469Z,28.33
2022-08-24T16:19:23.050Z,28.74
2022-08-24T16:23:29.149Z,28.77
2022-08-24T16:27:55.484Z,28.60
2022-08-24T16:32:09.472Z,29.38
2022-08-24T16:36:15.606Z,29.38
2022-08-24T16:40:18.525Z,29.42
2022-08-24T16:44:21.209Z,28.45
2022-08-24T16:48:30.290Z,27.63
2022-08-24T16:52:32.904Z,27.25
2022-08-24T16:56:35.883Z,26.47
2022-08-24T17:00:38.592Z,25.90
2022-08-24T17:04:43.513Z,26.08
2022-08-24T17:08:47.510Z,26.10
2022-08-24T17:12:50.171Z,26.33
2022-08-24T17:16:52.948Z,26.40
2022-08-24T17:20:56.915Z,26.01
2022-08-24T17:24:59.708Z,26.54
2022-08-24T17:29:05.189Z,26.83
2022-08-24T17:33:07.865Z,26.31
2022-08-24T17:37:12.120Z,26.65
2022-08-24T17:41:18.143Z,27.57
2022-08-24T17:45:22.727Z,28.33
2022-08-24T17:49:26.132Z,29.53
2022-08-24T17:53:30.149Z,30.36
2022-08-24T17:57:32.926Z,30.96
2022-08-24T18:01:35.482Z,32.05
2022-08-24T18:05:38.166Z,32.50
2022-08-24T18:09:48.010Z,33.40
2022-08-24T18:13:50.607Z,34.09
2022-08-24T18:17:53.654Z,34.50
2022-08-24T18:21:56.293Z,34.76
2022-08-24T18:26:00.425Z,35.34
2022-08-24T18:30:06.045Z,35.99
2022-08-24T18:34:09.432Z,36.57
2022-08-24T18:38:12.127Z,37.29
2022-08-24T18:42:16.228Z,38.16
2022-08-24T18:46:18.867Z,38.39
2022-08-24T18:50:21.980Z,39.33
2022-08-24T18:54:26.886Z,40.01
2022-08-24T18:58:30.744Z,40.97
2022-08-24T19:02:33.967Z,41.23
2022-08-24T19:06:36.553Z,41.99
2022-08-24T19:10:39.050Z,42.40
2022-08-24T19:14:46.379Z,42.95
2022-08-24T19:18:51.106Z,43.44
2022-08-24T19:22:54.177Z,43.58
2022-08-24T19:27:01.913Z,44.36
2022-08-24T19:31:11.838Z,44.67
2022-08-24T19:35:15.789Z,45.32
2022-08-24T19:39:18.620Z,45.86
2022-08-24T19:43:26.870Z,46.44
2022-08-24T19:47:34.300Z,46.86
2022-08-24T19:51:38.295Z,46.89
2022-08-24T19:55:40.916Z,47.25
2022-08-24T19:59:44.652Z,47.78
2022-08-24T20:03:48.801Z,48.83
2022-08-24T20:07:51.876Z,50.57
2022-08-24T20:11:54.435Z,50.76
2022-08-24T20:15:58.231Z,51.44
2022-08-24T20:20:02.744Z,51.77
2022-08-24T20:24:06.348Z,52.65
2022-08-24T20:32:31.919Z,54.11
2022-08-24T20:36:38.100Z,54.64
2022-08-24T20:40:41.012Z,54.44
2022-08-24T20:44:44.297Z,54.57
2022-08-24T20:48:55.487Z,54.76
2022-08-24T20:53:00.008Z,54.19
2022-08-24T20:57:02.942Z,54.35
2022-08-24T21:01:05.560Z,54.47
2022-08-24T21:05:09.566Z,55.45
2022-08-24T21:09:14.564Z,55.71
2022-08-24T21:13:17.292Z,56.29
2022-08-24T21:17:20.139Z,57.02
2022-08-24T21:21:22.717Z,56.56
2022-08-24T21:25:27.186Z,57.73
2022-08-24T21:29:30.342Z,58.29
2022-08-24T21:33:50.624Z,58.19
2022-08-24T21:37:53.264Z,57.62
2022-08-24T21:41:58.340Z,57.56
2022-08-24T21:46:01.362Z,57.91
2022-08-24T21:50:04.102Z,58.16
2022-08-24T21:54:07.105Z,58.32
2022-08-24T21:58:12.277Z,58.35
2022-08-24T22:02:16.905Z,58.85
2022-08-24T22:06:24.440Z,59.36
2022-08-24T22:10:30.751Z,59.94
2022-08-24T22:14:35.312Z,59.87
2022-08-24T22:18:38.205Z,60.40
2022-08-24T22:22:41.173Z,60.85
2022-08-24T22:26:44.162Z,61.41
2022-08-24T22:30:49.272Z,61.30
2022-08-24T22:34:51.943Z,61.69
2022-08-24T22:38:56.008Z,61.37
2022-08-24T22:42:58.557Z,61.85
2022-08-24T22:47:12.947Z,61.95
2022-08-24T22:51:18.634Z,63.00
2022-08-24T22:55:23.386Z,63.26
2022-08-24T22:59:28.422Z,63.35
2022-08-24T23:03:32.390Z,63.33
2022-08-24T23:07:35.455Z,63.49
2022-08-24T23:11:38.863Z,63.10
2022-08-24T23:15:41.438Z,63.34
2022-08-24T23:20:05.658Z,62.75
2022-08-24T23:24:10.522Z,62.92
2022-08-24T23:28:13.510Z,63.83
2022-08-24T23:32:18.135Z,63.39
2022-08-24T23:36:24.832Z,63.83
2022-08-24T23:40:27.486Z,63.97
2022-08-24T23:44:31.248Z,64.99
2022-08-24T23:48:34.487Z,66.58
2022-08-24T23:52:39.201Z,66.32
2022-08-24T23:56:44.370Z,66.67
